TimeEDT,TemperatureF,Dew PointF,Humidity,Sea Level PressureIn,VisibilityMPH,Wind Direction,Wind SpeedMPH,Gust SpeedMPH,PrecipitationIn,Events,Conditions,WindDirDegrees,DateUTC
12:53 AM,63.0,60.1,90,29.68,6.0,SSE,5.8,-,N/A,,Overcast,160,2013-05-12 04:53:00
1:11 AM,60.8,59.0,94,29.68,6.0,SSE,4.6,-,N/A,,Overcast,160,2013-05-12 05:11:00
1:53 AM,61.0,59.0,93,29.68,6.0,South,4.6,-,N/A,,Overcast,170,2013-05-12 05:53:00
2:39 AM,60.8,59.0,94,29.67,6.0,SSE,6.9,-,N/A,,Mostly Cloudy,160,2013-05-12 06:39:00
2:53 AM,61.0,59.0,93,29.65,6.0,SSE,4.6,-,N/A,,Overcast,160,2013-05-12 06:53:00
3:00 AM,60.8,59.0,94,29.65,6.0,South,4.6,-,N/A,,Mostly Cloudy,170,2013-05-12 07:00:00
3:53 AM,60.1,59.0,96,29.64,5.0,SSW,3.5,-,N/A,,Mostly Cloudy,200,2013-05-12 07:53:00
4:04 AM,60.8,59.0,94,29.66,5.0,SSW,5.8,-,N/A,,Overcast,200,2013-05-12 08:04:00
4:53 AM,60.1,59.0,96,29.65,5.0,South,4.6,-,0.00,Rain,Light Rain,190,2013-05-12 08:53:00
5:02 AM,60.8,59.0,94,29.64,4.0,Variable,3.5,-,0.00,,Overcast,0,2013-05-12 09:02:00
5:11 AM,60.8,59.0,94,29.64,5.0,SSW,4.6,-,0.00,,Overcast,210,2013-05-12 09:11:00
5:22 AM,60.8,59.0,94,29.66,5.0,SW,4.6,-,0.00,,Overcast,230,2013-05-12 09:22:00
5:31 AM,60.8,59.0,94,29.66,5.0,WSW,3.5,-,0.00,,Overcast,240,2013-05-12 09:31:00
5:44 AM,60.8,57.2,88,29.67,8.0,WSW,5.8,-,0.00,,Overcast,250,2013-05-12 09:44:00
5:53 AM,61.0,57.9,90,29.66,10.0,West,4.6,-,0.00,Rain,Light Rain,280,2013-05-12 09:53:00
6:08 AM,60.8,50.0,68,29.65,10.0,NNW,8.1,-,0.00,Rain,Light Rain,340,2013-05-12 10:08:00
6:48 AM,60.8,51.8,72,29.67,10.0,WNW,3.5,-,0.01,,Overcast,300,2013-05-12 10:48:00
6:53 AM,60.1,51.1,72,29.66,10.0,NNW,3.5,-,0.01,,Overcast,330,2013-05-12 10:53:00
7:33 AM,57.2,53.6,88,29.68,5.0,West,4.6,-,0.01,Rain,Light Rain,280,2013-05-12 11:33:00
7:41 AM,57.2,53.6,88,29.67,6.0,NNW,3.5,-,0.02,Rain,Light Rain,340,2013-05-12 11:41:00
7:53 AM,57.9,53.1,84,29.68,10.0,WNW,3.5,-,0.03,Rain,Light Rain,300,2013-05-12 11:53:00
8:14 AM,57.2,51.8,82,29.68,10.0,WNW,4.6,-,0.00,,Overcast,290,2013-05-12 12:14:00
8:53 AM,59.0,52.0,78,29.67,10.0,Calm,Calm,-,0.00,,Mostly Cloudy,0,2013-05-12 12:53:00
9:53 AM,61.0,50.0,67,29.66,10.0,NW,4.6,-,N/A,,Overcast,310,2013-05-12 13:53:00
10:53 AM,64.9,51.1,61,29.65,10.0,Variable,4.6,-,N/A,,Mostly Cloudy,0,2013-05-12 14:53:00
11:53 AM,66.9,50.0,54,29.64,10.0,Variable,3.5,-,N/A,,Scattered Clouds,0,2013-05-12 15:53:00
12:53 PM,66.9,50.0,54,29.63,10.0,SW,8.1,17.3,N/A,,Overcast,220,2013-05-12 16:53:00
1:53 PM,68.0,44.1,42,29.62,10.0,WSW,8.1,16.1,N/A,,Mostly Cloudy,250,2013-05-12 17:53:00
2:53 PM,70.0,42.1,36,29.61,10.0,West,16.1,21.9,N/A,,Partly Cloudy,260,2013-05-12 18:53:00
3:12 PM,64.4,46.4,52,29.64,10.0,NW,20.7,32.2,N/A,,Mostly Cloudy,310,2013-05-12 19:12:00
3:53 PM,64.0,44.1,48,29.65,10.0,WNW,15.0,27.6,N/A,,Clear,290,2013-05-12 19:53:00
4:53 PM,64.9,41.0,42,29.66,10.0,WNW,10.4,20.7,N/A,,Scattered Clouds,290,2013-05-12 20:53:00
5:53 PM,64.9,37.0,36,29.68,10.0,WNW,8.1,21.9,N/A,,Clear,290,2013-05-12 21:53:00
6:53 PM,62.1,37.9,41,29.71,10.0,NW,8.1,-,N/A,,Clear,310,2013-05-12 22:53:00
7:53 PM,59.0,28.9,32,29.74,10.0,NW,10.4,-,N/A,,Partly Cloudy,310,2013-05-12 23:53:00
8:53 PM,57.9,28.9,33,29.78,10.0,West,4.6,-,N/A,,Clear,260,2013-05-13 00:53:00
9:53 PM,55.9,28.0,34,29.81,10.0,NW,11.5,17.3,N/A,,Clear,310,2013-05-13 01:53:00
10:53 PM,54.0,26.1,34,29.85,10.0,West,10.4,-,N/A,,Clear,280,2013-05-13 02:53:00
11:53 PM,52.0,28.0,40,29.87,10.0,Calm,Calm,-,N/A,,Clear,0,2013-05-13 03:53:00